Time;durP1;ratioP1;P1;durP2;ratioP2;P2;SDS_P1;SDS_P2;PMS_P1;PMS_P2;Temp;Humidity;BMP_temperature;BMP_pressure;BME280_temperature;BME280_humidity;BME280_pressure;Samples;Min_cycle;Max_cycle;Signal;HPM_P1;HPM_P2
2022/05/20 00:01:57;;;;;;;1.15;1.10;;;22.00;99.90;;;;;;5011538;28;20229;-64
2022/05/20 00:04:24;;;;;;;1.10;1.10;;;22.10;99.90;;;;;;5012642;28;20599;-64
2022/05/20 00:06:51;;;;;;;1.35;1.25;;;22.10;99.90;;;;;;5007807;28;20779;-64
2022/05/20 00:09:18;;;;;;;1.52;1.10;;;22.00;99.90;;;;;;5016993;28;20208;-65
2022/05/20 00:11:44;;;;;;;1.13;1.02;;;22.00;99.90;;;;;;5011422;28;20287;-64
2022/05/20 00:14:13;;;;;;;1.00;1.00;;;22.00;99.90;;;;;;5005240;28;20315;-66
2022/05/20 00:16:40;;;;;;;1.00;1.00;;;21.90;99.90;;;;;;5005814;28;20241;-64
2022/05/20 00:19:08;;;;;;;1.00;1.00;;;21.90;99.90;;;;;;5006343;28;20249;-63
2022/05/20 00:21:36;;;;;;;1.00;1.00;;;21.90;99.90;;;;;;5009064;28;20225;-64
2022/05/20 00:24:04;;;;;;;1.60;1.20;;;21.90;99.90;;;;;;5021944;28;20236;-64
2022/05/20 00:26:31;;;;;;;1.20;1.20;;;21.90;99.90;;;;;;5039403;28;20274;-63
2022/05/20 00:28:58;;;;;;;1.20;1.20;;;21.90;99.90;;;;;;5017405;28;20224;-63
2022/05/20 00:31:27;;;;;;;1.15;1.10;;;21.90;99.90;;;;;;5014855;28;20258;-64
2022/05/20 00:33:54;;;;;;;1.27;1.08;;;21.80;99.90;;;;;;5017255;28;20593;-64
2022/05/20 00:36:21;;;;;;;1.75;1.23;;;21.80;99.90;;;;;;5019673;28;20223;-64
2022/05/20 00:38:48;;;;;;;0.93;0.93;;;21.80;99.90;;;;;;5016293;28;20248;-64
2022/05/20 00:41:16;;;;;;;1.50;1.40;;;21.70;99.90;;;;;;5015849;28;20207;-65
2022/05/20 00:43:45;;;;;;;1.15;1.15;;;21.70;99.90;;;;;;5014496;28;21001;-64
2022/05/20 00:46:16;;;;;;;1.40;1.30;;;21.60;99.90;;;;;;5017747;28;20239;-63
2022/05/20 00:48:45;;;;;;;1.10;1.10;;;21.50;99.90;;;;;;5029047;28;20204;-64
2022/05/20 00:51:16;;;;;;;1.40;1.30;;;21.50;99.90;;;;;;5013277;28;20799;-65
2022/05/20 00:53:48;;;;;;;1.20;1.10;;;21.40;99.90;;;;;;5012737;28;20213;-64
2022/05/20 00:56:18;;;;;;;1.42;1.33;;;21.40;99.90;;;;;;5011339;28;20221;-65
2022/05/20 00:58:46;;;;;;;1.27;1.17;;;21.40;99.90;;;;;;5012449;28;20220;-65
2022/05/20 01:01:13;;;;;;;1.20;1.10;;;21.40;99.90;;;;;;5011971;28;20316;-65
2022/05/20 01:03:40;;;;;;;1.33;1.30;;;21.30;99.90;;;;;;5011874;28;20251;-64
2022/05/20 01:06:10;;;;;;;1.20;1.20;;;21.40;99.90;;;;;;5010616;28;20232;-64
2022/05/20 01:08:40;;;;;;;1.48;1.20;;;21.40;99.90;;;;;;5010870;28;20227;-64
2022/05/20 01:11:07;;;;;;;1.20;1.20;;;21.40;99.90;;;;;;5011025;28;20285;-63
2022/05/20 01:13:35;;;;;;;1.20;1.20;;;21.40;99.90;;;;;;5010966;28;20586;-65
2022/05/20 01:16:07;;;;;;;1.20;1.20;;;21.40;99.90;;;;;;5011222;28;20232;-64
2022/05/20 01:18:36;;;;;;;1.83;1.33;;;21.40;99.90;;;;;;5011122;28;20217;-63
2022/05/20 01:21:04;;;;;;;1.15;1.10;;;21.30;99.90;;;;;;5010576;28;20215;-65
2022/05/20 01:23:34;;;;;;;1.10;1.10;;;21.30;99.90;;;;;;5010881;28;20209;-64
2022/05/20 01:26:01;;;;;;;1.10;1.10;;;21.30;99.90;;;;;;5010882;28;20221;-65
2022/05/20 01:28:31;;;;;;;1.00;1.00;;;21.30;99.90;;;;;;5010792;28;20231;-67
2022/05/20 01:31:01;;;;;;;1.20;1.20;;;21.30;99.90;;;;;;5010641;28;20209;-64
2022/05/20 01:33:31;;;;;;;1.20;1.20;;;21.20;99.90;;;;;;5010645;28;20296;-64
2022/05/20 01:35:59;;;;;;;1.30;1.20;;;21.20;99.90;;;;;;5018131;28;20224;-64
2022/05/20 01:38:26;;;;;;;1.30;1.30;;;21.20;99.90;;;;;;5019692;28;20201;-63
2022/05/20 01:40:59;;;;;;;0.98;0.98;;;21.20;99.90;;;;;;5030411;28;20295;-63
2022/05/20 01:43:38;;;;;;;1.35;1.30;;;21.10;99.90;;;;;;5030419;28;20872;-66
2022/05/20 01:46:15;;;;;;;1.00;1.00;;;21.10;99.90;;;;;;5030438;28;20274;-63
2022/05/20 01:48:50;;;;;;;1.25;1.15;;;21.10;99.90;;;;;;5072779;22;20236;-71
2022/05/20 01:51:22;;;;;;;1.20;1.15;;;21.00;99.90;;;;;;5045549;28;20250;-69
2022/05/20 01:53:53;;;;;;;1.13;1.10;;;21.00;99.90;;;;;;5051477;28;20307;-69
2022/05/20 01:56:26;;;;;;;1.20;1.20;;;20.90;99.90;;;;;;5050572;28;20637;-70
2022/05/20 01:58:59;;;;;;;1.15;1.15;;;20.90;99.90;;;;;;5051851;28;20232;-69
2022/05/20 02:01:31;;;;;;;1.25;1.25;;;20.90;99.90;;;;;;5050659;28;20218;-70
2022/05/20 02:04:04;;;;;;;1.55;1.45;;;20.80;99.90;;;;;;5051004;28;20180;-69
2022/05/20 02:06:35;;;;;;;1.20;1.20;;;20.80;99.90;;;;;;5050943;28;20206;-70
2022/05/20 02:09:07;;;;;;;1.33;1.23;;;20.80;99.90;;;;;;5050303;28;20315;-70
2022/05/20 02:11:40;;;;;;;1.10;1.10;;;20.80;99.90;;;;;;5050118;28;20219;-69
2022/05/20 02:14:11;;;;;;;1.50;1.40;;;20.80;99.90;;;;;;5050300;28;20223;-69
2022/05/20 02:16:40;;;;;;;1.15;1.15;;;20.80;99.90;;;;;;5042332;28;20290;-70
2022/05/20 02:19:12;;;;;;;1.38;1.27;;;20.80;99.90;;;;;;5050232;28;20227;-71
2022/05/20 02:21:43;;;;;;;1.35;1.35;;;20.80;99.90;;;;;;5050239;28;20280;-69
2022/05/20 02:24:14;;;;;;;1.33;1.23;;;20.80;99.90;;;;;;5050630;28;20299;-69
2022/05/20 02:26:48;;;;;;;1.45;1.30;;;20.80;99.90;;;;;;5050306;28;20200;-69
2022/05/20 02:29:18;;;;;;;1.02;1.02;;;20.80;99.90;;;;;;5053093;28;20228;-69
2022/05/20 02:31:51;;;;;;;1.25;1.25;;;20.80;99.90;;;;;;5053625;28;20741;-69
2022/05/20 02:34:18;;;;;;;1.40;1.30;;;20.70;99.90;;;;;;5054199;28;20594;-69
2022/05/20 02:36:46;;;;;;;1.13;1.13;;;20.70;99.90;;;;;;5054106;28;20200;-69
2022/05/20 02:39:16;;;;;;;1.50;1.30;;;20.70;99.90;;;;;;5054248;28;20232;-68
2022/05/20 02:41:46;;;;;;;1.10;1.10;;;20.60;99.90;;;;;;5053671;28;20210;-69
2022/05/20 02:44:13;;;;;;;1.40;1.30;;;20.50;99.90;;;;;;5053612;28;20767;-70
2022/05/20 02:46:42;;;;;;;2.33;1.33;;;20.50;99.90;;;;;;5054057;28;20203;-70
2022/05/20 02:49:09;;;;;;;1.15;1.15;;;20.50;99.90;;;;;;5053380;28;20322;-69
2022/05/20 02:51:36;;;;;;;1.15;1.15;;;20.40;99.90;;;;;;5053202;28;20610;-70
2022/05/20 02:54:04;;;;;;;1.15;1.15;;;20.50;99.90;;;;;;5053029;28;20286;-70
2022/05/20 02:56:32;;;;;;;1.40;1.30;;;20.40;99.90;;;;;;5052297;28;20287;-70
2022/05/20 03:04:29;;;;;;;1.30;1.20;;;20.20;99.90;;;;;;5056816;28;20199;-70
2022/05/20 03:06:56;;;;;;;1.40;1.30;;;20.20;99.90;;;;;;5055023;28;20242;-69
2022/05/20 03:09:25;;;;;;;1.20;1.20;;;20.10;99.90;;;;;;5053429;28;20259;-69
2022/05/20 03:11:52;;;;;;;1.20;1.20;;;20.10;99.90;;;;;;5053386;28;20255;-70
2022/05/20 03:14:23;;;;;;;1.20;1.20;;;20.10;99.90;;;;;;5053633;28;20322;-69
2022/05/20 03:16:50;;;;;;;1.30;1.20;;;20.10;99.90;;;;;;5053319;28;20299;-70
2022/05/20 03:19:18;;;;;;;1.10;1.10;;;20.10;99.90;;;;;;5053135;28;20289;-69
2022/05/20 03:21:45;;;;;;;1.15;1.15;;;20.10;99.90;;;;;;5052063;28;20624;-69
2022/05/20 03:24:13;;;;;;;1.23;1.20;;;20.10;99.90;;;;;;5052880;28;20208;-70
2022/05/20 03:26:40;;;;;;;1.35;1.30;;;20.10;99.90;;;;;;5053155;28;20662;-70
2022/05/20 03:29:08;;;;;;;1.15;1.15;;;20.00;99.90;;;;;;5053409;28;20664;-69
2022/05/20 03:31:38;;;;;;;1.55;1.45;;;20.00;99.90;;;;;;5052492;28;21007;-70
2022/05/20 03:34:06;;;;;;;1.20;1.20;;;20.00;99.90;;;;;;5053024;28;20199;-71
2022/05/20 03:36:34;;;;;;;1.30;1.20;;;20.00;99.90;;;;;;5053175;28;20215;-70
2022/05/20 03:39:01;;;;;;;1.40;1.30;;;20.00;99.90;;;;;;5052195;28;20355;-69
2022/05/20 03:41:28;;;;;;;1.00;1.00;;;20.00;99.90;;;;;;5052124;28;20302;-70
2022/05/20 03:43:55;;;;;;;1.13;1.10;;;20.00;99.90;;;;;;5052637;28;20310;-70
2022/05/20 03:46:22;;;;;;;1.40;1.30;;;19.90;99.90;;;;;;5053431;28;20294;-70
2022/05/20 03:48:50;;;;;;;1.73;1.63;;;19.80;99.90;;;;;;5053789;28;20805;-69
2022/05/20 03:51:17;;;;;;;1.20;1.20;;;19.80;99.90;;;;;;5052689;28;20258;-70
2022/05/20 03:53:44;;;;;;;1.40;1.40;;;19.70;99.90;;;;;;5051110;28;20294;-70
2022/05/20 03:56:11;;;;;;;1.55;1.45;;;19.70;99.90;;;;;;5051349;28;20219;-70
2022/05/20 03:58:39;;;;;;;1.20;1.20;;;19.70;99.90;;;;;;5051758;28;20228;-70
2022/05/20 04:03:54;;;;;;;1.27;1.27;;;19.70;99.90;;;;;;5051893;28;20194;-64
2022/05/20 04:06:21;;;;;;;1.50;1.40;;;19.80;99.90;;;;;;5052520;28;20243;-64
2022/05/20 04:08:48;;;;;;;1.40;1.30;;;20.10;99.90;;;;;;5052113;28;20223;-63
2022/05/20 04:11:15;;;;;;;1.33;1.23;;;20.40;99.90;;;;;;5051913;28;20204;-62
2022/05/20 04:13:43;;;;;;;1.52;1.42;;;20.50;99.90;;;;;;5052131;28;20666;-63
2022/05/20 04:16:11;;;;;;;1.33;1.33;;;20.60;99.90;;;;;;5052248;28;20330;-62
2022/05/20 04:18:40;;;;;;;1.52;1.40;;;20.60;99.90;;;;;;5051841;28;20220;-63
2022/05/20 04:21:08;;;;;;;1.20;1.20;;;20.70;99.90;;;;;;5051244;28;20636;-65
2022/05/20 04:23:35;;;;;;;1.20;1.20;;;20.70;99.90;;;;;;5051892;28;20288;-63
2022/05/20 04:26:02;;;;;;;1.17;1.17;;;20.70;99.90;;;;;;5051770;28;20258;-63
2022/05/20 04:28:29;;;;;;;1.20;1.20;;;20.70;99.90;;;;;;5051764;28;20251;-62
2022/05/20 04:30:58;;;;;;;1.52;1.25;;;20.70;99.90;;;;;;5051037;28;20266;-62
2022/05/20 04:33:26;;;;;;;1.17;1.17;;;20.70;99.90;;;;;;5051659;28;20206;-62
2022/05/20 04:35:53;;;;;;;1.52;1.40;;;20.70;99.90;;;;;;5051164;28;20327;-63
2022/05/20 04:38:22;;;;;;;1.45;1.35;;;20.80;99.90;;;;;;5051921;28;20231;-63
2022/05/20 04:46:56;;;;;;;1.25;1.20;;;20.80;99.90;;;;;;5051639;28;20214;-65
2022/05/20 04:49:09;;;;;;;1.50;1.40;;;20.50;99.90;;;;;;5047005;28;20258;-70
2022/05/20 04:51:36;;;;;;;1.38;1.30;;;20.50;99.90;;;;;;5054287;28;20207;-70
2022/05/20 04:56:49;;;;;;;1.40;1.30;;;20.30;99.90;;;;;;5041990;28;20725;-70
2022/05/20 04:59:17;;;;;;;1.40;1.40;;;20.30;99.90;;;;;;5047310;28;20231;-71
2022/05/20 05:01:44;;;;;;;1.25;1.25;;;20.40;99.90;;;;;;5050860;28;20334;-70
2022/05/20 05:04:11;;;;;;;1.40;1.40;;;20.40;99.90;;;;;;5048519;28;20214;-70
2022/05/20 05:06:38;;;;;;;1.60;1.50;;;20.40;99.90;;;;;;5044885;28;20193;-70
2022/05/20 05:09:06;;;;;;;1.60;1.50;;;20.40;99.90;;;;;;5049977;28;20275;-70
2022/05/20 05:11:36;;;;;;;1.40;1.30;;;20.40;99.90;;;;;;5046467;28;20652;-70
2022/05/20 05:14:03;;;;;;;1.20;1.20;;;20.40;99.90;;;;;;5052422;28;20214;-71
2022/05/20 05:16:30;;;;;;;1.50;1.40;;;20.50;99.90;;;;;;5053229;28;20254;-70
2022/05/20 05:18:57;;;;;;;1.23;1.23;;;20.60;99.90;;;;;;5063146;28;20231;-71
2022/05/20 05:21:24;;;;;;;1.55;1.45;;;20.70;99.90;;;;;;5059849;28;20236;-70
2022/05/20 05:23:53;;;;;;;1.30;1.30;;;20.80;99.90;;;;;;5053338;28;20734;-70
2022/05/20 05:26:22;;;;;;;1.40;1.30;;;20.90;99.90;;;;;;5050470;28;20246;-70
2022/05/20 05:28:49;;;;;;;1.20;1.20;;;21.10;99.90;;;;;;5051166;28;20303;-70
2022/05/20 05:31:16;;;;;;;1.40;1.30;;;21.20;99.90;;;;;;5051649;28;20218;-70
2022/05/20 05:33:43;;;;;;;1.20;1.20;;;21.40;99.90;;;;;;5051396;28;20231;-69
2022/05/20 05:36:11;;;;;;;1.80;1.60;;;21.60;99.90;;;;;;5047847;28;20219;-70
2022/05/20 05:38:38;;;;;;;1.20;1.20;;;21.70;99.90;;;;;;5045299;28;20323;-70
2022/05/20 05:41:05;;;;;;;1.55;1.45;;;21.90;99.90;;;;;;5050746;28;20227;-69
2022/05/20 05:43:33;;;;;;;1.65;1.55;;;22.00;99.90;;;;;;5051142;28;20295;-70
2022/05/20 05:46:00;;;;;;;1.13;1.13;;;22.10;99.90;;;;;;5051812;28;20660;-69
2022/05/20 05:48:27;;;;;;;1.67;1.30;;;22.20;99.90;;;;;;5052344;28;20669;-69
2022/05/20 05:50:55;;;;;;;1.50;1.40;;;22.40;99.90;;;;;;5052264;28;20243;-70
2022/05/20 05:53:24;;;;;;;2.33;1.50;;;22.60;99.90;;;;;;5052742;28;20259;-70
2022/05/20 05:55:56;;;;;;;1.42;1.33;;;22.70;99.90;;;;;;5051984;28;20220;-69
2022/05/20 05:58:23;;;;;;;1.60;1.50;;;22.80;99.90;;;;;;5053020;28;20310;-70
2022/05/20 06:00:52;;;;;;;1.55;1.45;;;22.90;99.90;;;;;;5052495;28;20212;-69
2022/05/20 06:03:19;;;;;;;1.55;1.45;;;23.00;99.90;;;;;;5053782;28;20291;-70
2022/05/20 06:05:46;;;;;;;1.23;1.20;;;23.10;99.90;;;;;;5057458;28;20287;-69
2022/05/20 06:08:14;;;;;;;1.33;1.23;;;23.20;99.90;;;;;;5056191;28;20220;-70
2022/05/20 06:10:42;;;;;;;1.20;1.20;;;23.40;99.90;;;;;;5057366;28;20220;-70
2022/05/20 06:13:09;;;;;;;1.35;1.27;;;23.50;99.90;;;;;;5059138;28;20283;-69
2022/05/20 06:15:38;;;;;;;1.40;1.30;;;23.60;99.90;;;;;;5053680;28;20571;-71
2022/05/20 06:18:07;;;;;;;1.60;1.50;;;23.70;99.90;;;;;;5052504;28;20314;-69
2022/05/20 06:20:34;;;;;;;1.17;1.17;;;23.70;99.90;;;;;;5054483;28;20298;-69
2022/05/20 06:23:02;;;;;;;1.50;1.40;;;23.90;99.90;;;;;;5050424;28;20319;-70
2022/05/20 06:25:29;;;;;;;1.75;1.30;;;24.00;99.90;;;;;;5042092;28;20196;-70
2022/05/20 06:28:05;;;;;;;1.35;1.25;;;24.20;99.90;;;;;;5044014;28;20234;-69
2022/05/20 06:30:32;;;;;;;1.20;1.20;;;24.30;99.90;;;;;;5046232;28;20573;-70
2022/05/20 06:32:59;;;;;;;1.15;1.10;;;24.50;99.90;;;;;;5049073;28;20681;-70
2022/05/20 06:40:56;;;;;;;1.30;1.30;;;25.00;99.90;;;;;;5052850;28;20203;-69
2022/05/20 06:43:23;;;;;;;1.30;1.20;;;25.30;99.90;;;;;;5048456;28;20214;-69
2022/05/20 06:45:52;;;;;;;1.10;1.10;;;25.40;99.90;;;;;;5050108;28;20295;-69
2022/05/20 06:48:19;;;;;;;1.10;1.10;;;25.60;99.90;;;;;;5057902;28;20223;-68
2022/05/20 06:50:47;;;;;;;1.20;1.20;;;25.80;99.90;;;;;;5054234;28;20226;-68
2022/05/20 06:53:14;;;;;;;1.35;1.30;;;26.00;99.90;;;;;;5052924;28;20231;-68
2022/05/20 06:55:41;;;;;;;1.55;1.45;;;26.10;99.90;;;;;;5053814;28;20630;-68
2022/05/20 06:58:09;;;;;;;1.58;1.48;;;26.20;99.90;;;;;;5053191;28;20226;-68
2022/05/20 07:00:36;;;;;;;1.40;1.30;;;26.30;99.90;;;;;;5053372;28;20296;-69
2022/05/20 07:03:02;;;;;;;1.70;1.60;;;26.30;99.90;;;;;;5052833;28;20238;-69
2022/05/20 07:05:29;;;;;;;1.40;1.30;;;26.40;99.90;;;;;;5053982;28;20202;-69
2022/05/20 07:07:58;;;;;;;1.60;1.50;;;26.30;99.90;;;;;;5048872;28;20315;-69
2022/05/20 07:10:25;;;;;;;1.40;1.30;;;26.40;99.90;;;;;;5051716;28;20228;-70
2022/05/20 07:12:52;;;;;;;2.20;1.50;;;26.60;99.90;;;;;;5049290;28;20200;-68
2022/05/20 07:15:19;;;;;;;1.58;1.48;;;26.70;99.90;;;;;;5039853;28;20204;-69
2022/05/20 07:17:48;;;;;;;2.95;1.70;;;26.80;99.90;;;;;;5042786;28;20224;-69
2022/05/20 07:20:15;;;;;;;1.60;1.50;;;26.90;99.90;;;;;;5046495;28;20204;-69
2022/05/20 07:22:42;;;;;;;1.70;1.60;;;26.90;99.90;;;;;;5054335;28;20564;-69
2022/05/20 07:25:11;;;;;;;1.70;1.60;;;27.00;99.90;;;;;;5047200;28;20223;-69
2022/05/20 07:27:38;;;;;;;1.50;1.40;;;27.10;99.90;;;;;;5053553;28;20227;-69
2022/05/20 07:30:07;;;;;;;1.10;1.10;;;27.20;99.90;;;;;;5052033;28;20238;-69
2022/05/20 07:32:34;;;;;;;1.25;1.20;;;27.40;99.90;;;;;;5052407;28;20291;-69
2022/05/20 07:35:01;;;;;;;1.08;1.08;;;27.50;99.90;;;;;;5053434;28;20857;-69
2022/05/20 07:37:28;;;;;;;1.40;1.30;;;27.70;99.90;;;;;;5047771;28;20311;-68
2022/05/20 07:39:55;;;;;;;1.40;1.30;;;27.80;99.90;;;;;;5052845;28;20236;-70
2022/05/20 07:42:23;;;;;;;1.45;1.40;;;27.90;99.90;;;;;;5052363;28;20214;-69
2022/05/20 07:44:51;;;;;;;1.73;1.58;;;27.80;99.90;;;;;;5052376;28;20584;-68
2022/05/20 07:47:19;;;;;;;2.70;1.50;;;27.90;99.90;;;;;;5044877;28;20287;-69
2022/05/20 07:49:46;;;;;;;1.15;1.15;;;27.90;99.90;;;;;;5082968;22;20313;-65
2022/05/20 07:53:19;;;;;;;1.30;1.20;;;28.10;99.90;;;;;;5070283;28;20208;-65
2022/05/20 07:55:02;;;;;;;1.42;1.20;;;28.30;99.90;;;;;;5070390;28;20592;-65
2022/05/20 07:57:31;;;;;;;1.35;1.33;;;28.40;99.90;;;;;;5068420;28;20310;-66
2022/05/20 07:59:58;;;;;;;1.60;1.50;;;28.50;99.90;;;;;;5063156;28;21111;-65
2022/05/20 08:02:27;;;;;;;1.20;1.20;;;28.60;99.90;;;;;;5038002;28;20236;-65
2022/05/20 08:05:00;;;;;;;1.52;1.42;;;28.60;99.90;;;;;;5050069;28;20214;-65
2022/05/20 08:07:31;;;;;;;1.20;1.20;;;28.80;99.90;;;;;;5039946;28;20197;-65
2022/05/20 08:09:58;;;;;;;1.20;1.00;;;29.00;99.90;;;;;;5045702;28;20223;-65
2022/05/20 08:12:25;;;;;;;1.10;1.10;;;29.20;99.90;;;;;;5060448;28;20200;-65
2022/05/20 08:14:54;;;;;;;1.60;1.50;;;29.30;99.90;;;;;;5048309;28;20295;-63
2022/05/20 08:17:24;;;;;;;1.27;1.17;;;29.30;99.90;;;;;;5045479;28;20223;-64
2022/05/20 08:19:51;;;;;;;1.20;1.20;;;29.40;99.90;;;;;;5045965;28;20277;-63
2022/05/20 08:22:22;;;;;;;1.50;1.40;;;29.50;99.90;;;;;;5044740;28;20204;-63
2022/05/20 08:24:52;;;;;;;1.70;1.60;;;29.50;99.90;;;;;;5053673;28;20711;-64
2022/05/20 08:27:20;;;;;;;1.50;1.40;;;29.50;99.90;;;;;;5052669;28;20257;-63
2022/05/20 08:29:47;;;;;;;1.40;1.30;;;29.30;99.90;;;;;;5053194;28;20231;-64
2022/05/20 08:32:15;;;;;;;1.30;1.30;;;29.30;99.90;;;;;;5052281;28;20208;-64
2022/05/20 08:34:43;;;;;;;1.30;1.20;;;29.40;99.90;;;;;;5054193;28;20204;-64
2022/05/20 08:37:11;;;;;;;1.40;1.30;;;29.50;99.90;;;;;;5051785;28;20239;-65
2022/05/20 08:39:38;;;;;;;1.20;1.20;;;29.60;99.90;;;;;;5053924;28;20220;-64
2022/05/20 08:42:09;;;;;;;1.30;1.20;;;29.60;99.90;;;;;;5057298;28;20294;-64
2022/05/20 08:44:36;;;;;;;1.42;1.33;;;29.70;99.90;;;;;;5055930;28;20271;-64
2022/05/20 08:47:14;;;;;;;1.33;1.30;;;29.70;99.90;;;;;;5052237;28;20658;-64
2022/05/20 08:49:42;;;;;;;1.50;1.40;;;29.60;99.90;;;;;;5046970;28;20321;-65
2022/05/20 08:52:10;;;;;;;1.40;1.38;;;29.50;99.90;;;;;;5051166;28;20254;-65
2022/05/20 08:54:37;;;;;;;1.42;1.33;;;29.50;99.90;;;;;;5061381;28;20321;-65
2022/05/20 08:57:16;;;;;;;1.27;1.20;;;29.60;99.90;;;;;;5048501;28;20580;-65
2022/05/20 08:59:43;;;;;;;1.30;1.30;;;29.70;99.90;;;;;;5056774;28;20712;-64
2022/05/20 09:02:10;;;;;;;1.95;1.42;;;29.80;99.90;;;;;;5055242;28;20341;-63
2022/05/20 09:04:37;;;;;;;1.40;1.27;;;29.80;99.90;;;;;;5054808;28;20254;-64
2022/05/20 09:07:08;;;;;;;1.33;1.30;;;29.80;99.90;;;;;;5054160;28;20231;-64
2022/05/20 09:09:45;;;;;;;1.10;1.10;;;30.00;99.90;;;;;;5046818;28;20246;-64
2022/05/20 09:12:25;;;;;;;1.20;1.20;;;30.20;99.90;;;;;;5041707;28;20611;-64
2022/05/20 09:17:46;;;;;;;1.58;1.20;;;30.60;99.90;;;;;;5049898;28;20247;-64
2022/05/20 09:20:17;;;;;;;2.00;1.50;;;30.80;99.90;;;;;;5050529;28;20713;-63
2022/05/20 09:22:56;;;;;;;1.23;1.17;;;31.00;99.90;;;;;;5046877;28;20204;-63
2022/05/20 09:25:28;;;;;;;1.00;1.00;;;31.10;99.90;;;;;;5049357;28;20299;-63
2022/05/20 09:28:13;;;;;;;1.27;1.17;;;31.10;99.90;;;;;;5048899;28;20284;-64
2022/05/20 09:30:42;;;;;;;1.08;1.08;;;31.10;99.90;;;;;;5053488;28;20238;-65
2022/05/20 09:33:13;;;;;;;1.35;1.25;;;31.20;99.90;;;;;;5079575;28;20230;-66
2022/05/20 09:35:41;;;;;;;1.10;1.10;;;31.40;99.90;;;;;;5064169;28;20212;-66
2022/05/20 09:38:26;;;;;;;1.50;1.40;;;31.20;99.90;;;;;;5049866;28;20306;-65
2022/05/20 09:40:53;;;;;;;1.30;1.20;;;31.20;99.90;;;;;;5042501;28;20231;-65
2022/05/20 09:43:25;;;;;;;1.75;1.20;;;31.40;99.90;;;;;;5049654;28;20294;-65
2022/05/20 09:45:53;;;;;;;1.40;1.30;;;31.30;99.90;;;;;;5049032;28;20291;-65
2022/05/20 09:48:25;;;;;;;1.10;1.10;;;31.30;99.90;;;;;;5051674;28;20309;-65
2022/05/20 09:51:05;;;;;;;1.23;1.17;;;31.10;99.90;;;;;;5048335;28;20652;-65
2022/05/20 09:53:39;;;;;;;1.00;1.00;;;31.00;99.90;;;;;;5065319;28;20231;-65
2022/05/20 09:56:19;;;;;;;1.10;1.10;;;31.20;99.90;;;;;;5054982;28;20199;-65
2022/05/20 09:59:00;;;;;;;1.40;1.30;;;31.60;99.90;;;;;;5050823;28;20220;-65
2022/05/20 10:01:29;;;;;;;1.52;1.42;;;31.80;99.90;;;;;;5054806;28;20196;-65
2022/05/20 10:04:00;;;;;;;1.20;1.20;;;31.90;99.90;;;;;;5054991;28;20238;-66
2022/05/20 10:06:32;;;;;;;1.20;1.20;;;31.90;99.90;;;;;;5048811;28;20228;-64
2022/05/20 10:09:09;;;;;;;1.45;1.20;;;31.90;99.90;;;;;;5055039;28;20223;-64
2022/05/20 10:11:46;;;;;;;1.50;1.40;;;32.00;99.90;;;;;;5042954;28;20238;-65
2022/05/20 10:14:17;;;;;;;1.30;1.30;;;32.10;99.90;;;;;;5042879;28;20235;-64
2022/05/20 10:16:50;;;;;;;1.20;1.10;;;32.30;99.90;;;;;;5051447;28;20705;-65
2022/05/20 10:19:23;;;;;;;1.35;1.25;;;32.40;99.90;;;;;;5054830;28;20231;-64
2022/05/20 10:21:57;;;;;;;1.30;1.20;;;32.60;99.90;;;;;;5051438;28;20204;-64
2022/05/20 10:24:45;;;;;;;1.40;1.30;;;32.70;99.90;;;;;;5043790;28;20196;-65
2022/05/20 10:27:18;;;;;;;1.52;1.42;;;32.50;99.90;;;;;;5049004;28;20235;-64
2022/05/20 10:32:47;;;;;;;1.20;1.10;;;32.60;99.90;;;;;;5038856;28;20290;-65
2022/05/20 10:35:18;;;;;;;1.10;1.10;;;32.60;99.90;;;;;;5035369;28;20716;-65
2022/05/20 10:38:13;;;;;;;1.50;1.10;;;32.50;99.90;;;;;;5034983;28;20294;-65
2022/05/20 10:40:51;;;;;;;1.00;1.00;;;32.70;99.90;;;;;;5034550;28;20208;-65
2022/05/20 10:43:28;;;;;;;1.20;1.20;;;32.80;99.90;;;;;;5036561;28;20274;-65
2022/05/20 10:48:58;;;;;;;1.40;1.30;;;32.90;99.90;;;;;;5046611;28;20227;-65
2022/05/20 10:51:47;;;;;;;1.55;1.45;;;32.50;99.90;;;;;;5050415;28;20204;-65
2022/05/20 10:54:32;;;;;;;1.33;1.25;;;32.20;99.90;;;;;;5046256;28;20239;-65
2022/05/20 10:57:18;;;;;;;1.15;1.15;;;32.10;99.90;;;;;;5043224;28;20259;-65
2022/05/20 11:00:03;;;;;;;1.30;1.20;;;32.10;99.90;;;;;;5053606;28;20306;-65
2022/05/20 11:03:01;;;;;;;1.40;1.30;;;32.20;99.90;;;;;;5039947;28;20291;-65
2022/05/20 11:05:55;;;;;;;1.40;1.30;;;32.20;99.90;;;;;;5046114;28;20211;-65
2022/05/20 11:08:32;;;;;;;2.13;1.10;;;32.40;99.90;;;;;;5017426;28;20471;-65
2022/05/20 11:11:17;;;;;;;1.45;1.35;;;32.60;99.90;;;;;;5049545;28;20238;-64
2022/05/20 11:14:02;;;;;;;1.00;1.00;;;32.70;99.90;;;;;;5034837;28;20251;-65
2022/05/20 11:16:43;;;;;;;1.38;1.27;;;33.00;99.90;;;;;;5034954;28;20235;-65
2022/05/20 11:19:32;;;;;;;1.25;1.17;;;33.20;99.90;;;;;;5034821;28;20255;-65
2022/05/20 11:22:22;;;;;;;1.70;1.60;;;33.30;99.90;;;;;;5033927;28;20679;-65
2022/05/20 11:25:13;;;;;;;1.10;1.10;;;33.40;99.90;;;;;;5034001;28;20240;-65
2022/05/20 11:28:00;;;;;;;1.02;1.02;;;33.40;99.90;;;;;;5031905;28;20236;-65
2022/05/20 11:30:39;;;;;;;1.33;1.15;;;33.70;99.90;;;;;;5036819;28;20592;-65
2022/05/20 11:33:32;;;;;;;2.97;1.30;;;33.80;99.90;;;;;;5034434;28;20199;-65
2022/05/20 11:36:15;;;;;;;3.80;1.40;;;33.90;99.90;;;;;;5034931;28;20546;-65
2022/05/20 11:39:07;;;;;;;1.33;1.23;;;33.90;99.90;;;;;;5033894;28;20232;-65
2022/05/20 11:41:42;;;;;;;1.10;1.10;;;33.90;99.90;;;;;;5048408;28;20226;-65
2022/05/20 11:44:32;;;;;;;1.50;1.40;;;33.90;99.90;;;;;;5034979;28;20218;-66
2022/05/20 11:47:41;;;;;;;1.60;1.50;;;33.90;99.60;;;;;;5030910;28;20204;-66
2022/05/20 11:50:33;;;;;;;4.35;1.63;;;33.70;97.90;;;;;;5035622;28;20680;-64
2022/05/20 11:53:07;;;;;;;1.30;1.20;;;33.60;97.60;;;;;;5052668;28;20289;-64
2022/05/20 11:55:39;;;;;;;1.10;1.10;;;33.60;96.70;;;;;;5052951;28;20191;-65
2022/05/20 11:58:08;;;;;;;1.27;1.17;;;33.60;97.80;;;;;;5053023;28;20230;-66
2022/05/20 12:00:39;;;;;;;1.50;1.20;;;33.70;97.40;;;;;;5052163;28;20208;-64
2022/05/20 12:03:12;;;;;;;1.42;1.30;;;33.70;96.80;;;;;;5052494;28;20631;-64
2022/05/20 12:05:41;;;;;;;1.77;1.63;;;33.80;97.00;;;;;;5053292;28;20607;-65
2022/05/20 12:08:09;;;;;;;1.30;1.20;;;33.90;96.90;;;;;;5053027;28;20287;-66
2022/05/20 12:10:49;;;;;;;1.58;1.38;;;33.90;97.10;;;;;;5047369;28;20236;-66
2022/05/20 12:13:22;;;;;;;1.38;1.30;;;33.90;95.90;;;;;;5039285;28;20212;-65
2022/05/20 12:16:09;;;;;;;1.27;1.15;;;34.00;96.10;;;;;;5046491;28;20297;-65
2022/05/20 12:24:38;;;;;;;2.13;1.40;;;34.10;96.40;;;;;;5090192;28;20639;-66
2022/05/20 12:27:11;;;;;;;1.40;1.30;;;34.20;96.00;;;;;;5091574;28;20691;-65
2022/05/20 12:29:59;;;;;;;1.55;1.45;;;34.10;95.50;;;;;;5108412;28;20254;-65
2022/05/20 12:32:46;;;;;;;1.45;1.35;;;34.10;95.90;;;;;;5096347;28;20198;-65
2022/05/20 12:35:18;;;;;;;1.73;1.30;;;34.10;95.20;;;;;;5092202;28;20632;-66
2022/05/20 12:38:14;;;;;;;1.15;1.15;;;34.00;94.30;;;;;;5091847;28;20252;-66
2022/05/20 12:41:00;;;;;;;1.33;1.23;;;34.20;95.20;;;;;;5071919;28;20293;-66
2022/05/20 12:44:01;;;;;;;3.75;1.60;;;34.10;94.60;;;;;;5089969;28;20669;-66
2022/05/20 12:47:05;;;;;;;1.60;1.33;;;34.10;93.70;;;;;;5091098;28;20294;-66
2022/05/20 12:49:35;;;;;;;1.42;1.33;;;34.00;94.00;;;;;;5090231;28;20222;-65
2022/05/20 12:52:10;;;;;;;1.30;1.20;;;34.20;93.90;;;;;;5090721;28;20210;-67
2022/05/20 12:54:40;;;;;;;1.52;1.42;;;34.20;94.20;;;;;;5090299;28;20201;-65
2022/05/20 12:57:10;;;;;;;1.00;1.00;;;34.20;93.30;;;;;;5090090;28;20194;-66
2022/05/20 12:59:37;;;;;;;1.00;1.00;;;34.40;94.30;;;;;;5083422;28;20776;-65
2022/05/20 13:02:09;;;;;;;1.38;1.30;;;34.50;94.30;;;;;;5098308;28;20209;-65
2022/05/20 13:04:40;;;;;;;2.05;1.38;;;34.50;92.80;;;;;;5109494;28;20633;-65
2022/05/20 13:07:13;;;;;;;1.02;1.00;;;34.60;92.90;;;;;;5113483;28;20277;-64
2022/05/20 13:09:42;;;;;;;1.10;1.10;;;34.70;92.20;;;;;;5111530;28;20222;-65
2022/05/20 13:12:18;;;;;;;1.00;1.00;;;34.80;92.50;;;;;;5092373;28;20575;-65
2022/05/20 13:14:46;;;;;;;1.10;1.10;;;34.80;91.40;;;;;;5087468;28;20210;-66
2022/05/20 13:17:13;;;;;;;1.40;1.30;;;34.80;92.40;;;;;;5085651;28;20202;-66
2022/05/20 13:19:46;;;;;;;1.27;1.27;;;34.90;91.40;;;;;;5080574;28;20258;-65
2022/05/20 13:22:16;;;;;;;1.15;1.05;;;34.90;90.80;;;;;;5081403;28;20187;-65
2022/05/20 13:24:43;;;;;;;2.55;1.40;;;34.90;91.30;;;;;;5077641;28;20235;-66
2022/05/20 13:27:14;;;;;;;1.55;1.20;;;34.90;91.10;;;;;;5073659;28;20249;-66
2022/05/20 13:29:43;;;;;;;0.98;0.98;;;35.00;91.10;;;;;;5088392;28;20230;-65
2022/05/20 13:32:28;;;;;;;1.45;1.35;;;35.20;91.80;;;;;;5069865;28;20282;-66
2022/05/20 13:34:57;;;;;;;1.10;1.10;;;35.40;91.30;;;;;;5065799;28;20219;-65
2022/05/20 13:37:28;;;;;;;1.48;1.35;;;35.40;91.30;;;;;;5061347;28;20287;-66
2022/05/20 13:40:00;;;;;;;1.63;1.30;;;35.50;91.30;;;;;;5063050;28;20721;-65
2022/05/20 13:42:33;;;;;;;1.30;1.20;;;35.50;90.60;;;;;;5065871;28;20627;-65
2022/05/20 13:45:07;;;;;;;1.30;1.20;;;35.40;89.90;;;;;;5064045;28;20230;-66
2022/05/20 13:50:23;;;;;;;1.75;1.40;;;35.10;90.00;;;;;;5056415;22;20239;-68